To NAV CANADA Home Page Login to a new session Search on AWWS site Feedback and Comments Disclaimer Vers la page française équivalente Tips FAQ What's new on the site To the Forecasts and Observations / NOTAM section To "File a Flight Plan" website Publications and other links Update of the User's profile FIC Telephone Numbers My Weather Data Folder Route Weather Data Regional Weather Data Local Weather Data To the Forecasts and Observations / NOTAM section
Request Generated 05/27/2016 at 00:12:34 UTC . Weather information available at that time is displayed.

METAR/TAF

HALIFAX/STANFIELD INTL/NS    (show WxCam)

METAR CYHZ 270000Z 35015G22KT 15SM OVC011 09/07 A3012 RMK SC8 SLP205=
SPECI CYHZ 262339Z 34014KT 15SM BKN009 OVC025 09/07 A3012 RMK SF7SC1
SLP205=
METAR CYHZ 262300Z 35014G23KT 15SM BKN018 BKN030 10/07 A3011 RMK
SC5SC2 SLP199=
METAR CYHZ 262200Z 36019KT 15SM BKN030 13/09 A3008 RMK SC7 SLP189=

TAF CYHZ 262338Z 2700/2724 35012G22KT P6SM BKN020 OVC030 TEMPO
2700/2703 BKN030
BECMG 2700/2702 35012KT
FM270300 36012KT P6SM OVC012 TEMPO 2703/2707 OVC008
FM270700 36012KT P6SM OVC007
FM271500 16008KT P6SM BKN015 OVC150
FM272300 17012KT 6SM BR OVC008
RMK NXT FCST BY 270300Z=
Your time UTC time
Weather data provided by Environment Canada and NAV CANADA